Time;durP1;ratioP1;P1;durP2;ratioP2;P2;SDS_P1;SDS_P2;PMS_P1;PMS_P2;Temp;Humidity;BMP_temperature;BMP_pressure;BME280_temperature;BME280_humidity;BME280_pressure;Samples;Min_cycle;Max_cycle;Signal;HPM_P1;HPM_P2
2022/10/26 00:02:12;;;;;;;1.57;1.47;;;12.40;99.90;;;;;;5108861;28;20620;-82
2022/10/26 00:04:39;;;;;;;1.33;1.23;;;12.40;99.90;;;;;;5107923;28;20665;-82
2022/10/26 00:07:05;;;;;;;2.67;1.70;;;12.40;99.90;;;;;;5108359;28;20630;-82
2022/10/26 00:09:34;;;;;;;1.40;1.30;;;12.30;99.90;;;;;;5107821;28;20615;-82
2022/10/26 00:12:01;;;;;;;1.30;1.03;;;13.10;99.90;;;;;;5108448;28;20669;-83
2022/10/26 00:14:29;;;;;;;1.77;1.67;;;12.40;99.90;;;;;;5108006;28;21185;-83
2022/10/26 00:16:55;;;;;;;1.40;1.30;;;12.40;99.90;;;;;;5108228;28;20608;-82
2022/10/26 00:19:22;;;;;;;1.77;1.67;;;12.40;99.90;;;;;;5108543;28;20615;-82
2022/10/26 00:21:49;;;;;;;1.43;1.33;;;12.40;99.90;;;;;;5108519;28;20619;-83
2022/10/26 00:24:16;;;;;;;1.43;1.33;;;12.40;99.90;;;;;;5111167;28;21212;-82
2022/10/26 00:26:44;;;;;;;1.83;1.73;;;12.40;99.90;;;;;;5112467;28;20618;-83
2022/10/26 00:29:12;;;;;;;1.70;1.60;;;12.40;99.90;;;;;;5112549;28;20821;-82
2022/10/26 00:31:40;;;;;;;2.13;1.60;;;12.40;99.90;;;;;;5112477;28;20600;-83
2022/10/26 00:34:06;;;;;;;1.77;1.67;;;12.40;99.90;;;;;;5102415;28;20609;-82
2022/10/26 00:36:33;;;;;;;0.70;0.70;;;12.40;99.90;;;;;;5091222;28;20620;-83
2022/10/26 00:39:00;;;;;;;3.47;1.93;;;12.40;99.90;;;;;;5091593;28;20656;-82
2022/10/26 00:41:30;;;;;;;2.27;1.40;;;12.40;99.90;;;;;;5091746;28;20986;-83
2022/10/26 00:43:58;;;;;;;1.70;1.33;;;12.50;99.90;;;;;;5091741;28;20661;-83
2022/10/26 00:46:28;;;;;;;3.03;2.10;;;12.30;99.90;;;;;;5091544;28;20620;-83
2022/10/26 00:48:58;;;;;;;1.53;1.43;;;12.40;99.90;;;;;;5091389;28;21255;-83
2022/10/26 00:51:31;;;;;;;2.10;1.70;;;12.40;99.90;;;;;;5091231;28;21206;-82
2022/10/26 00:53:59;;;;;;;1.93;1.77;;;12.50;99.90;;;;;;5091469;28;20662;-84
2022/10/26 00:56:27;;;;;;;1.40;1.30;;;12.50;99.90;;;;;;5091123;28;20631;-83
2022/10/26 00:58:55;;;;;;;1.83;1.73;;;12.50;99.90;;;;;;5098043;28;20604;-83
2022/10/26 01:01:24;;;;;;;1.43;1.33;;;12.50;99.90;;;;;;5111122;28;20707;-84
2022/10/26 01:03:51;;;;;;;1.60;1.50;;;12.50;99.90;;;;;;5111010;28;20622;-82
2022/10/26 01:06:18;;;;;;;1.10;1.03;;;12.60;99.90;;;;;;5110495;28;20607;-82
2022/10/26 01:08:46;;;;;;;1.43;1.33;;;12.60;99.90;;;;;;5111448;28;21009;-83
2022/10/26 01:11:13;;;;;;;1.40;1.30;;;12.30;99.90;;;;;;5111586;28;20710;-82
2022/10/26 01:13:44;;;;;;;1.70;1.50;;;12.50;99.90;;;;;;5111679;28;20660;-83
2022/10/26 01:16:33;;;;;;;4.73;1.90;;;12.60;99.90;;;;;;5110941;28;20946;-82
2022/10/26 01:19:17;;;;;;;1.63;1.53;;;12.60;99.90;;;;;;5111578;28;20618;-83
2022/10/26 01:21:52;;;;;;;2.60;1.00;;;12.50;99.90;;;;;;5111105;28;20618;-82
2022/10/26 01:24:43;;;;;;;1.43;1.13;;;12.60;99.90;;;;;;5111250;28;20691;-81
2022/10/26 01:27:22;;;;;;;1.20;1.10;;;12.60;99.90;;;;;;5110971;28;21164;-81
2022/10/26 01:30:11;;;;;;;1.17;1.07;;;12.60;99.90;;;;;;5111114;28;20623;-82
2022/10/26 01:32:46;;;;;;;1.00;0.90;;;12.60;99.90;;;;;;5111360;28;20622;-82
2022/10/26 01:35:18;;;;;;;1.10;0.90;;;12.60;99.90;;;;;;5091423;28;20623;-81
2022/10/26 01:37:49;;;;;;;1.13;1.13;;;12.60;99.90;;;;;;5110345;28;20600;-81
2022/10/26 01:40:21;;;;;;;0.97;0.97;;;12.60;99.90;;;;;;5110887;28;20647;-82
2022/10/26 01:42:51;;;;;;;1.27;1.17;;;12.70;99.90;;;;;;5110101;28;20626;-81
2022/10/26 01:45:19;;;;;;;1.47;1.37;;;12.50;99.90;;;;;;5101922;28;21302;-80
2022/10/26 01:47:48;;;;;;;1.40;1.10;;;12.40;99.90;;;;;;5089660;28;20629;-83
2022/10/26 01:50:16;;;;;;;8.63;1.43;;;12.50;99.90;;;;;;5090029;28;20986;-81
2022/10/26 01:52:43;;;;;;;3.90;1.23;;;12.50;99.90;;;;;;5089230;28;20635;-83
2022/10/26 01:55:43;;;;;;;1.20;1.10;;;12.50;99.90;;;;;;5089808;28;20631;-84
2022/10/26 01:58:20;;;;;;;0.50;0.50;;;12.30;99.90;;;;;;5089619;28;20592;-83
2022/10/26 02:00:57;;;;;;;3.77;1.67;;;12.40;99.90;;;;;;5109713;28;20676;-83
2022/10/26 02:03:31;;;;;;;1.57;1.47;;;12.40;99.90;;;;;;5109852;28;20615;-83
2022/10/26 02:06:11;;;;;;;1.63;1.20;;;12.50;99.90;;;;;;5109817;28;20762;-83
2022/10/26 02:08:55;;;;;;;1.30;1.20;;;12.50;99.90;;;;;;5109767;28;20622;-83
2022/10/26 02:11:32;;;;;;;0.70;0.70;;;12.60;99.90;;;;;;5110161;28;20660;-83
2022/10/26 02:14:11;;;;;;;1.50;1.40;;;12.60;99.90;;;;;;5110187;28;20635;-83
2022/10/26 02:16:47;;;;;;;1.37;1.20;;;12.50;99.90;;;;;;5108991;28;21240;-83
2022/10/26 02:19:25;;;;;;;1.27;1.17;;;12.60;99.90;;;;;;5109716;28;21457;-82
2022/10/26 02:21:56;;;;;;;1.03;0.97;;;12.60;99.90;;;;;;5109398;28;20624;-84
2022/10/26 02:24:26;;;;;;;1.17;1.07;;;12.60;99.90;;;;;;5109474;28;20775;-84
2022/10/26 02:26:58;;;;;;;1.17;1.07;;;12.60;99.90;;;;;;5109543;28;20619;-83
2022/10/26 02:29:25;;;;;;;1.07;1.00;;;;;;;;;;5109099;28;21197;-83
2022/10/26 02:31:54;;;;;;;1.10;1.00;;;12.60;99.90;;;;;;5109361;28;20714;-82
2022/10/26 02:34:26;;;;;;;1.20;1.20;;;12.70;99.90;;;;;;5109448;28;20959;-83
2022/10/26 02:36:57;;;;;;;1.73;1.63;;;12.60;99.90;;;;;;5109241;28;20696;-82
2022/10/26 02:39:31;;;;;;;1.23;1.23;;;13.10;99.90;;;;;;5109348;28;20655;-83
2022/10/26 02:42:01;;;;;;;0.97;0.80;;;12.60;99.90;;;;;;5109054;28;20615;-82
2022/10/26 02:44:32;;;;;;;1.30;1.30;;;12.50;99.90;;;;;;5108673;28;21067;-82
2022/10/26 02:47:00;;;;;;;0.83;0.80;;;12.70;99.90;;;;;;5107943;28;20719;-82
2022/10/26 02:49:30;;;;;;;2.17;1.63;;;12.60;99.90;;;;;;5108666;28;20612;-82
2022/10/26 02:52:04;;;;;;;1.47;1.07;;;12.70;99.90;;;;;;5109238;28;20616;-82
2022/10/26 02:54:39;;;;;;;2.70;2.03;;;12.60;99.90;;;;;;5108735;28;20717;-83
2022/10/26 02:57:10;;;;;;;0.80;0.80;;;12.70;99.90;;;;;;5108798;28;20612;-83
2022/10/26 02:59:40;;;;;;;1.90;1.07;;;12.70;99.90;;;;;;5108633;28;20730;-82
2022/10/26 03:02:08;;;;;;;1.63;1.47;;;12.70;99.90;;;;;;5108631;28;21181;-82
2022/10/26 03:04:36;;;;;;;1.73;1.60;;;12.70;99.90;;;;;;5108471;28;21015;-84
2022/10/26 03:07:03;;;;;;;2.10;1.33;;;12.70;99.90;;;;;;5108716;28;20619;-83
2022/10/26 03:09:30;;;;;;;1.43;1.33;;;12.70;99.90;;;;;;5108594;28;20596;-84
2022/10/26 03:11:57;;;;;;;1.33;0.90;;;12.70;99.90;;;;;;5108579;28;20714;-82
2022/10/26 03:14:23;;;;;;;2.50;1.50;;;12.70;99.90;;;;;;5108145;28;20616;-82
2022/10/26 03:16:50;;;;;;;0.83;0.73;;;12.70;99.90;;;;;;5108233;28;20703;-82
2022/10/26 03:19:17;;;;;;;2.50;1.30;;;12.70;99.90;;;;;;5108599;28;20707;-82
2022/10/26 03:21:45;;;;;;;1.10;0.97;;;12.70;99.90;;;;;;5108633;28;20632;-82
2022/10/26 03:24:12;;;;;;;1.13;1.00;;;12.70;99.90;;;;;;5108074;28;21237;-83
2022/10/26 03:26:39;;;;;;;1.63;1.53;;;12.60;99.90;;;;;;5108163;28;21015;-83
2022/10/26 03:29:07;;;;;;;1.50;1.37;;;12.80;99.90;;;;;;5108415;28;20649;-82
2022/10/26 03:31:34;;;;;;;3.33;1.37;;;12.70;99.90;;;;;;5108047;28;20615;-83
2022/10/26 03:34:01;;;;;;;1.70;1.50;;;12.80;99.90;;;;;;5107927;28;21189;-83
2022/10/26 03:36:28;;;;;;;1.13;1.10;;;12.90;99.90;;;;;;5107882;28;20668;-81
2022/10/26 03:38:56;;;;;;;1.33;1.20;;;12.90;99.90;;;;;;5108150;28;20611;-82
2022/10/26 03:41:23;;;;;;;2.43;1.40;;;12.90;99.90;;;;;;5108108;28;20651;-82
2022/10/26 03:43:50;;;;;;;2.50;1.73;;;13.00;99.90;;;;;;5108148;28;20635;-81
2022/10/26 03:46:17;;;;;;;0.80;0.80;;;13.20;99.90;;;;;;5107009;28;20761;-82
2022/10/26 03:48:44;;;;;;;1.00;1.00;;;13.00;99.90;;;;;;5107592;28;21249;-82
2022/10/26 03:51:10;;;;;;;1.90;1.33;;;13.60;99.90;;;;;;5108195;28;20631;-82
2022/10/26 03:53:37;;;;;;;1.50;1.33;;;13.00;99.90;;;;;;5107869;28;20651;-83
2022/10/26 03:56:06;;;;;;;1.30;1.20;;;13.00;99.90;;;;;;5108025;28;20734;-83
2022/10/26 03:58:33;;;;;;;1.50;1.40;;;13.00;99.90;;;;;;5106957;28;20646;-83
2022/10/26 04:01:00;;;;;;;0.77;0.77;;;13.10;99.90;;;;;;5107152;28;20619;-83
2022/10/26 04:03:27;;;;;;;1.20;1.10;;;13.10;99.90;;;;;;5108292;28;20620;-83
2022/10/26 04:05:54;;;;;;;1.37;1.27;;;13.20;99.90;;;;;;5101006;28;20660;-83
2022/10/26 04:08:21;;;;;;;1.80;0.90;;;13.10;99.90;;;;;;5104977;28;20624;-81
2022/10/26 04:10:48;;;;;;;1.47;1.37;;;13.20;99.90;;;;;;5107151;28;21041;-83
2022/10/26 04:13:16;;;;;;;1.50;0.87;;;13.60;99.90;;;;;;5107912;28;20627;-83
2022/10/26 04:15:43;;;;;;;1.10;1.00;;;13.20;99.90;;;;;;5097545;28;20608;-83
2022/10/26 04:18:11;;;;;;;1.40;1.30;;;13.20;99.90;;;;;;5098787;28;20715;-82
2022/10/26 04:20:41;;;;;;;1.80;1.07;;;13.20;99.90;;;;;;5095684;28;20624;-83
2022/10/26 04:23:11;;;;;;;1.50;1.40;;;13.10;99.90;;;;;;5096458;28;21116;-83
2022/10/26 04:25:38;;;;;;;1.13;1.07;;;13.20;99.90;;;;;;5097367;28;20705;-84
2022/10/26 04:28:06;;;;;;;1.63;1.00;;;14.80;99.90;;;;;;5097896;28;21208;-84
2022/10/26 04:30:35;;;;;;;1.80;1.70;;;13.20;99.90;;;;;;5100734;28;20624;-84
2022/10/26 04:33:02;;;;;;;1.57;1.47;;;13.20;99.90;;;;;;5107741;28;20619;-84
2022/10/26 04:35:29;;;;;;;1.90;1.80;;;13.50;99.90;;;;;;5088093;28;20627;-84
2022/10/26 04:37:59;;;;;;;9.30;1.73;;;13.30;99.90;;;;;;5087781;28;20652;-83
2022/10/26 04:40:26;;;;;;;0.93;0.90;;;13.30;99.90;;;;;;5090210;28;21009;-83
2022/10/26 04:42:53;;;;;;;1.30;1.20;;;13.30;99.90;;;;;;5091070;28;20621;-84
2022/10/26 04:45:21;;;;;;;1.30;1.20;;;13.30;99.90;;;;;;5097978;28;20780;-83
2022/10/26 04:47:59;;;;;;;0.97;0.97;;;13.30;99.90;;;;;;5097696;28;20669;-85
2022/10/26 04:50:27;;;;;;;1.13;1.10;;;;;;;;;;5093350;28;20731;-82
2022/10/26 04:52:54;;;;;;;2.50;1.00;;;13.30;99.90;;;;;;5101872;28;20619;-83
2022/10/26 04:55:21;;;;;;;1.20;1.13;;;13.40;99.90;;;;;;5107058;28;21050;-83
2022/10/26 04:57:48;;;;;;;1.20;1.10;;;13.40;99.90;;;;;;5107434;28;20611;-83
2022/10/26 05:00:15;;;;;;;2.27;1.50;;;13.40;99.90;;;;;;5107654;28;20618;-83
2022/10/26 05:02:42;;;;;;;1.00;1.00;;;13.30;99.90;;;;;;5106274;28;21257;-83
2022/10/26 05:05:10;;;;;;;1.53;1.40;;;13.30;99.90;;;;;;5106292;28;20655;-83
2022/10/26 05:07:37;;;;;;;1.33;0.90;;;;;;;;;;5099827;28;20759;-82
2022/10/26 05:10:05;;;;;;;0.83;0.83;;;13.20;99.90;;;;;;5104807;28;20659;-84
2022/10/26 05:12:32;;;;;;;1.13;1.13;;;13.30;99.90;;;;;;5111463;28;21156;-83
2022/10/26 05:14:59;;;;;;;1.50;1.40;;;13.30;99.90;;;;;;5110830;28;20730;-83
2022/10/26 05:17:26;;;;;;;2.00;1.90;;;13.40;99.90;;;;;;5110864;28;21033;-83
2022/10/26 05:19:54;;;;;;;6.00;1.63;;;13.30;99.90;;;;;;5110076;28;20627;-83
2022/10/26 05:22:22;;;;;;;1.40;1.30;;;13.40;99.90;;;;;;5111378;28;20840;-83
2022/10/26 05:24:49;;;;;;;1.73;1.63;;;13.40;99.90;;;;;;5110198;28;20967;-83
2022/10/26 05:27:16;;;;;;;1.83;1.00;;;13.30;99.90;;;;;;5110844;28;20663;-83
2022/10/26 05:29:43;;;;;;;1.20;1.10;;;13.30;99.90;;;;;;5111121;28;20657;-83
2022/10/26 05:32:10;;;;;;;0.80;0.80;;;13.30;99.90;;;;;;5111276;28;20704;-84
2022/10/26 05:34:36;;;;;;;0.80;0.80;;;13.20;99.90;;;;;;5109742;28;20709;-83
2022/10/26 05:37:03;;;;;;;0.60;0.60;;;13.20;99.90;;;;;;5110031;28;20672;-84
2022/10/26 05:39:31;;;;;;;1.50;1.40;;;13.30;99.90;;;;;;5111088;28;20607;-84
2022/10/26 05:41:58;;;;;;;0.97;0.97;;;13.60;99.90;;;;;;5110749;28;20678;-83
2022/10/26 05:44:26;;;;;;;1.10;1.00;;;13.60;99.90;;;;;;5110583;28;20619;-84
2022/10/26 05:46:53;;;;;;;1.93;0.67;;;13.40;99.90;;;;;;5110223;28;21217;-83
2022/10/26 05:49:19;;;;;;;0.87;0.80;;;13.30;99.90;;;;;;5109960;28;20669;-84
2022/10/26 05:51:46;;;;;;;1.07;1.07;;;13.30;99.90;;;;;;5110778;28;20616;-83
2022/10/26 05:54:13;;;;;;;1.27;1.17;;;13.30;99.90;;;;;;5102774;27;20627;-83
2022/10/26 05:56:42;;;;;;;0.40;0.40;;;13.40;99.90;;;;;;5108131;28;20763;-84
2022/10/26 05:59:14;;;;;;;1.00;0.90;;;13.30;99.90;;;;;;5115757;27;20721;-83
2022/10/26 06:02:00;;;;;;;1.50;1.00;;;13.30;99.90;;;;;;5130454;27;20734;-83
2022/10/26 06:04:37;;;;;;;0.97;0.90;;;13.40;99.90;;;;;;5131087;27;20625;-83
2022/10/26 06:07:10;;;;;;;0.80;0.80;;;13.30;99.90;;;;;;5130305;27;20662;-84
2022/10/26 06:09:37;;;;;;;0.60;0.50;;;13.30;99.90;;;;;;5116710;27;20986;-82
2022/10/26 06:12:07;;;;;;;1.00;0.90;;;13.30;99.90;;;;;;5109755;28;20619;-83
2022/10/26 06:14:34;;;;;;;2.00;1.30;;;13.30;99.90;;;;;;5110251;28;20977;-83
2022/10/26 06:17:15;;;;;;;1.90;1.43;;;13.30;99.90;;;;;;5109658;28;21146;-83
2022/10/26 06:20:03;;;;;;;1.47;1.30;;;13.40;99.90;;;;;;5109935;28;20608;-83
2022/10/26 06:22:43;;;;;;;1.50;1.40;;;13.40;99.90;;;;;;5109391;28;20612;-83
2022/10/26 06:25:23;;;;;;;0.93;0.80;;;13.40;99.90;;;;;;5109006;28;21212;-83
2022/10/26 06:28:01;;;;;;;0.73;0.73;;;13.40;99.90;;;;;;5108928;28;20599;-82
2022/10/26 06:30:28;;;;;;;5.57;1.80;;;13.50;99.90;;;;;;5106752;28;21232;-83
2022/10/26 06:32:56;;;;;;;0.70;0.70;;;13.50;99.90;;;;;;5107510;28;21208;-82
2022/10/26 06:35:34;;;;;;;1.30;1.03;;;13.70;99.90;;;;;;5107225;28;21028;-83
2022/10/26 06:38:07;;;;;;;1.00;0.83;;;13.60;99.90;;;;;;5104736;28;20662;-84
2022/10/26 06:40:38;;;;;;;1.07;0.97;;;13.70;99.90;;;;;;5108660;28;21016;-82
2022/10/26 06:43:12;;;;;;;1.80;1.37;;;13.60;99.90;;;;;;5108910;28;20612;-83
2022/10/26 06:45:41;;;;;;;1.73;1.23;;;13.70;99.90;;;;;;5107872;27;21443;-83
2022/10/26 06:48:15;;;;;;;1.20;1.10;;;13.70;99.90;;;;;;5106599;28;20684;-83
2022/10/26 06:50:49;;;;;;;1.93;1.40;;;13.80;99.90;;;;;;5110154;28;20607;-82
2022/10/26 06:53:24;;;;;;;1.53;0.93;;;13.80;99.90;;;;;;5109054;28;21029;-85
2022/10/26 06:55:52;;;;;;;3.40;1.87;;;13.80;99.90;;;;;;5104537;28;20724;-84
2022/10/26 06:58:23;;;;;;;1.93;1.33;;;13.80;99.90;;;;;;5107778;28;20628;-82
2022/10/26 07:00:53;;;;;;;1.07;0.90;;;13.80;99.90;;;;;;5110099;28;20673;-82
2022/10/26 07:03:20;;;;;;;0.70;0.70;;;13.80;99.90;;;;;;5109445;28;20612;-82
2022/10/26 07:05:47;;;;;;;1.20;1.20;;;13.90;99.90;;;;;;5109116;28;20707;-83
2022/10/26 07:08:14;;;;;;;0.70;0.70;;;13.80;99.90;;;;;;5108344;28;21032;-81
2022/10/26 07:10:42;;;;;;;1.57;1.20;;;13.90;99.90;;;;;;5108226;28;20711;-81
2022/10/26 07:13:10;;;;;;;0.90;0.90;;;13.90;99.90;;;;;;5109097;28;20731;-82
2022/10/26 07:15:40;;;;;;;1.30;1.20;;;14.30;99.90;;;;;;5108997;28;20681;-84
2022/10/26 07:18:07;;;;;;;0.93;0.90;;;14.00;99.90;;;;;;5087884;28;20719;-82
2022/10/26 07:20:37;;;;;;;3.60;1.43;;;14.00;99.90;;;;;;5087797;28;20716;-81
2022/10/26 07:23:06;;;;;;;2.10;1.23;;;14.20;99.90;;;;;;5087555;28;20631;-82
2022/10/26 07:25:37;;;;;;;1.10;1.10;;;13.90;99.90;;;;;;5091171;28;20612;-82
2022/10/26 07:28:05;;;;;;;2.10;0.93;;;14.20;99.90;;;;;;5108682;28;20603;-82
2022/10/26 07:30:32;;;;;;;1.50;1.40;;;14.10;99.90;;;;;;5108596;28;21096;-81
2022/10/26 07:33:01;;;;;;;1.40;1.30;;;14.20;99.90;;;;;;5107190;28;20631;-82
2022/10/26 07:35:28;;;;;;;0.80;0.80;;;14.30;99.90;;;;;;5105332;28;20628;-82
2022/10/26 07:37:58;;;;;;;2.40;1.30;;;14.30;99.90;;;;;;5107853;28;20644;-81
2022/10/26 07:40:26;;;;;;;1.77;1.63;;;14.30;99.90;;;;;;5107526;28;21232;-82
2022/10/26 07:42:52;;;;;;;1.80;1.27;;;14.30;99.90;;;;;;5107990;28;20726;-82
2022/10/26 07:45:20;;;;;;;3.90;1.40;;;14.40;99.90;;;;;;5107423;28;20620;-81
2022/10/26 07:47:46;;;;;;;2.20;2.10;;;14.30;99.90;;;;;;5107530;28;20675;-81
2022/10/26 07:50:15;;;;;;;1.40;1.20;;;14.30;99.90;;;;;;5108237;28;21141;-82
2022/10/26 07:52:42;;;;;;;3.97;2.50;;;14.40;99.90;;;;;;5108608;28;20616;-81
2022/10/26 07:55:10;;;;;;;2.20;1.33;;;14.40;99.90;;;;;;5108289;28;20732;-82
2022/10/26 07:57:37;;;;;;;1.73;1.27;;;14.50;99.90;;;;;;5087348;28;20601;-81
2022/10/26 08:00:06;;;;;;;2.50;1.40;;;14.50;99.90;;;;;;5104817;28;20612;-81
2022/10/26 08:02:35;;;;;;;1.97;1.63;;;14.50;99.90;;;;;;5107443;28;21041;-81
2022/10/26 08:05:02;;;;;;;1.20;1.10;;;14.40;99.90;;;;;;5106836;28;20615;-82
2022/10/26 08:07:30;;;;;;;1.37;1.27;;;14.50;99.90;;;;;;5107317;28;20828;-83
2022/10/26 08:09:57;;;;;;;2.97;2.10;;;14.50;99.90;;;;;;5099355;28;20748;-81
2022/10/26 08:12:24;;;;;;;1.67;1.17;;;15.20;99.90;;;;;;5108372;28;20628;-81
2022/10/26 08:14:51;;;;;;;1.40;1.30;;;14.60;99.90;;;;;;5108329;28;20604;-81
2022/10/26 08:17:19;;;;;;;1.27;0.87;;;14.60;99.90;;;;;;5107119;28;20683;-82
2022/10/26 08:19:48;;;;;;;2.00;1.20;;;14.60;99.90;;;;;;5108331;28;20615;-82
2022/10/26 08:22:15;;;;;;;2.00;1.60;;;15.00;99.90;;;;;;5107854;28;20607;-82
2022/10/26 08:24:45;;;;;;;1.20;1.10;;;14.70;99.90;;;;;;5108099;28;21211;-81
2022/10/26 08:27:12;;;;;;;4.17;1.30;;;14.80;99.90;;;;;;5107159;28;20754;-82
2022/10/26 08:29:39;;;;;;;2.00;1.57;;;14.80;99.90;;;;;;5107512;28;20699;-82
2022/10/26 08:32:06;;;;;;;1.70;1.40;;;14.80;99.90;;;;;;5108220;28;20894;-82
2022/10/26 08:34:33;;;;;;;1.63;1.20;;;14.80;99.90;;;;;;5107308;28;20628;-83
2022/10/26 08:37:00;;;;;;;1.93;1.40;;;14.80;99.90;;;;;;5107291;28;20627;-84
2022/10/26 08:39:27;;;;;;;1.50;1.40;;;15.00;99.90;;;;;;5107824;28;20612;-82
2022/10/26 08:42:01;;;;;;;1.93;1.40;;;14.80;99.90;;;;;;5107771;28;20604;-83
2022/10/26 08:44:33;;;;;;;2.00;1.23;;;15.00;99.90;;;;;;5106934;28;20623;-83
2022/10/26 08:47:05;;;;;;;2.70;2.03;;;15.00;99.90;;;;;;5090650;28;20748;-82
2022/10/26 08:49:42;;;;;;;3.93;1.80;;;15.00;99.90;;;;;;5091364;28;20670;-82
2022/10/26 08:52:14;;;;;;;2.03;1.80;;;15.00;99.90;;;;;;5091414;28;20718;-83
2022/10/26 08:54:45;;;;;;;3.50;2.17;;;15.00;99.90;;;;;;5090773;28;20742;-82
2022/10/26 08:57:21;;;;;;;3.30;2.50;;;15.10;99.90;;;;;;5108070;28;20620;-81
2022/10/26 08:59:53;;;;;;;2.00;1.90;;;15.10;99.90;;;;;;5111676;28;20623;-81
2022/10/26 09:02:21;;;;;;;4.00;1.87;;;15.10;99.90;;;;;;5111680;28;20680;-82
2022/10/26 09:04:48;;;;;;;3.40;2.10;;;15.20;99.90;;;;;;5111547;28;20646;-83
2022/10/26 09:07:35;;;;;;;1.20;1.10;;;15.10;99.90;;;;;;5110867;28;21357;-81
2022/10/26 09:10:13;;;;;;;1.77;1.20;;;15.20;99.90;;;;;;5111207;28;21239;-83
2022/10/26 09:12:48;;;;;;;1.87;1.53;;;15.20;99.90;;;;;;5111245;28;20714;-82
2022/10/26 09:15:24;;;;;;;1.10;1.00;;;15.40;99.90;;;;;;5111418;28;20615;-82
2022/10/26 09:18:03;;;;;;;0.80;0.80;;;15.40;99.90;;;;;;5110875;28;20623;-82
2022/10/26 09:21:00;;;;;;;1.40;1.23;;;15.50;99.90;;;;;;5110990;28;20683;-86
2022/10/26 09:23:40;;;;;;;1.00;0.90;;;15.50;99.90;;;;;;5110842;28;20691;-81
2022/10/26 09:26:13;;;;;;;0.97;0.90;;;15.90;99.90;;;;;;5110814;28;20730;-82
2022/10/26 09:28:44;;;;;;;1.23;1.13;;;15.60;99.90;;;;;;5109687;28;20656;-82
2022/10/26 09:31:16;;;;;;;0.80;0.80;;;15.60;99.90;;;;;;5110738;28;20712;-82
2022/10/26 09:33:43;;;;;;;1.27;1.17;;;;;;;;;;5111212;28;20716;-83
2022/10/26 09:36:13;;;;;;;1.57;1.47;;;15.80;99.90;;;;;;5111228;28;20615;-83
2022/10/26 09:38:44;;;;;;;2.20;1.10;;;15.80;99.90;;;;;;5109595;28;20642;-83
2022/10/26 09:41:19;;;;;;;2.10;0.97;;;15.90;99.90;;;;;;5110766;28;21094;-82
2022/10/26 09:43:54;;;;;;;1.20;1.10;;;15.90;99.90;;;;;;5110581;28;20688;-83
2022/10/26 09:46:28;;;;;;;3.70;1.50;;;16.00;99.90;;;;;;5109802;28;20666;-82
2022/10/26 09:48:59;;;;;;;1.53;1.40;;;16.20;99.90;;;;;;5110421;28;20604;-82
2022/10/26 09:51:26;;;;;;;1.60;1.50;;;16.30;99.90;;;;;;5110511;28;20608;-82
2022/10/26 09:53:56;;;;;;;1.50;1.07;;;16.40;99.90;;;;;;5110487;28;20996;-82
2022/10/26 09:56:23;;;;;;;3.10;2.80;;;16.60;99.90;;;;;;5109471;28;20611;-83
2022/10/26 09:58:58;;;;;;;1.13;1.10;;;16.70;99.90;;;;;;5110256;28;20616;-82
2022/10/26 10:01:31;;;;;;;0.77;0.77;;;16.80;99.90;;;;;;5110025;28;20607;-82
2022/10/26 10:04:25;;;;;;;2.10;1.30;;;17.10;99.90;;;;;;5110820;28;20659;-83
2022/10/26 10:07:04;;;;;;;2.17;0.90;;;17.20;99.90;;;;;;5073067;28;21106;-83
2022/10/26 10:09:30;;;;;;;1.77;1.20;;;17.30;99.90;;;;;;5109965;28;20608;-83
2022/10/26 10:12:01;;;;;;;1.70;0.90;;;17.30;99.90;;;;;;5109709;28;21185;-83
2022/10/26 10:14:32;;;;;;;1.70;0.80;;;17.40;99.90;;;;;;5110140;28;20663;-84
2022/10/26 10:17:01;;;;;;;1.07;1.07;;;17.30;99.90;;;;;;5103585;28;20647;-82
2022/10/26 10:19:30;;;;;;;1.23;1.10;;;17.30;99.90;;;;;;5109920;28;20604;-82
2022/10/26 10:22:00;;;;;;;1.23;0.90;;;17.30;99.90;;;;;;5110118;28;21106;-83
2022/10/26 10:24:29;;;;;;;1.47;0.90;;;17.30;99.90;;;;;;5109314;28;20619;-84
2022/10/26 10:26:59;;;;;;;0.97;0.70;;;17.30;99.90;;;;;;5109749;28;20646;-82
2022/10/26 10:29:26;;;;;;;1.30;1.20;;;17.30;99.90;;;;;;5109562;28;20600;-84
2022/10/26 10:31:58;;;;;;;1.57;1.10;;;17.40;99.90;;;;;;5110005;28;20657;-82
2022/10/26 10:34:25;;;;;;;1.17;1.07;;;17.60;99.90;;;;;;5097666;28;20629;-83
2022/10/26 10:36:52;;;;;;;2.13;1.03;;;;;;;;;;5087976;28;21167;-83
2022/10/26 10:39:38;;;;;;;1.10;1.00;;;17.80;99.90;;;;;;5088081;28;20617;-83
2022/10/26 10:42:18;;;;;;;0.87;0.87;;;17.80;99.90;;;;;;5105631;28;21201;-83
2022/10/26 10:44:46;;;;;;;1.40;1.30;;;17.90;99.90;;;;;;5106960;28;20641;-83
2022/10/26 10:47:23;;;;;;;0.93;0.90;;;17.90;99.90;;;;;;5087567;28;20647;-82
2022/10/26 10:49:56;;;;;;;1.53;0.83;;;18.00;99.90;;;;;;5089188;28;20612;-83
2022/10/26 10:52:27;;;;;;;1.00;0.83;;;17.90;99.90;;;;;;5089294;28;20608;-83
2022/10/26 10:55:06;;;;;;;1.17;1.03;;;17.90;99.90;;;;;;5088800;28;20616;-83
2022/10/26 10:57:48;;;;;;;1.60;1.23;;;18.10;99.90;;;;;;5087610;28;20647;-82
2022/10/26 11:00:23;;;;;;;1.03;0.93;;;18.10;99.90;;;;;;5107024;28;21261;-83
2022/10/26 11:03:15;;;;;;;0.80;0.80;;;18.10;99.90;;;;;;5108675;28;20627;-83
2022/10/26 11:05:59;;;;;;;2.83;1.40;;;18.10;99.90;;;;;;5108928;28;20647;-83
2022/10/26 11:08:30;;;;;;;1.47;1.10;;;18.10;99.90;;;;;;5107341;28;20731;-81
2022/10/26 11:11:02;;;;;;;4.53;1.00;;;18.10;99.90;;;;;;5108912;28;20696;-81
2022/10/26 11:13:35;;;;;;;1.87;1.27;;;18.20;99.90;;;;;;5108756;28;21242;-81
2022/10/26 11:16:05;;;;;;;1.37;1.20;;;18.30;99.90;;;;;;5108361;28;20682;-81
2022/10/26 11:18:39;;;;;;;1.20;0.97;;;18.20;99.90;;;;;;5107350;28;20607;-82
2022/10/26 11:21:17;;;;;;;2.60;1.33;;;18.30;99.90;;;;;;5109378;28;20608;-81
2022/10/26 11:23:48;;;;;;;1.23;0.70;;;18.30;99.90;;;;;;5108722;28;20668;-81
2022/10/26 11:26:21;;;;;;;0.70;0.63;;;18.40;99.90;;;;;;5108131;28;21174;-81
2022/10/26 11:28:51;;;;;;;1.40;1.30;;;18.40;99.90;;;;;;5108235;28;20643;-82
2022/10/26 11:31:23;;;;;;;1.03;0.83;;;18.50;99.90;;;;;;5108878;28;20661;-81
2022/10/26 11:34:11;;;;;;;2.10;1.10;;;18.60;99.90;;;;;;5108235;28;20635;-82
2022/10/26 11:36:41;;;;;;;0.97;0.67;;;18.70;99.90;;;;;;5108153;28;20662;-81
2022/10/26 11:39:19;;;;;;;1.43;1.00;;;18.80;99.90;;;;;;5107114;28;20669;-80
2022/10/26 11:41:50;;;;;;;2.17;1.23;;;18.80;99.90;;;;;;5099020;28;21189;-81
2022/10/26 11:44:24;;;;;;;0.60;0.60;;;18.80;99.90;;;;;;5105842;28;20668;-81
2022/10/26 11:46:55;;;;;;;1.17;0.80;;;18.90;99.90;;;;;;5090173;28;21252;-80
2022/10/26 11:49:32;;;;;;;0.60;0.60;;;19.00;99.90;;;;;;5088672;28;20646;-81
2022/10/26 11:52:07;;;;;;;0.70;0.70;;;19.10;99.90;;;;;;5087859;28;20612;-81
2022/10/26 11:54:38;;;;;;;0.60;0.60;;;19.20;99.90;;;;;;5087753;28;20734;-82
2022/10/26 11:57:05;;;;;;;1.07;0.97;;;19.20;99.90;;;;;;5104248;28;20615;-80
2022/10/26 11:59:38;;;;;;;1.23;1.13;;;19.10;99.90;;;;;;5105182;28;20631;-82
2022/10/26 12:02:12;;;;;;;1.23;0.90;;;19.30;99.90;;;;;;5107265;28;21093;-84
2022/10/26 12:04:43;;;;;;;1.50;0.93;;;19.40;99.10;;;;;;5108273;28;20639;-82
2022/10/26 12:07:16;;;;;;;0.60;0.60;;;19.30;98.70;;;;;;5108130;28;20607;-84
2022/10/26 12:09:44;;;;;;;1.10;0.93;;;19.20;98.90;;;;;;5107662;28;20636;-81
2022/10/26 12:12:19;;;;;;;1.00;0.83;;;19.20;99.20;;;;;;5108189;28;20641;-81
2022/10/26 12:14:53;;;;;;;0.87;0.77;;;19.20;99.50;;;;;;5106600;28;20615;-82
2022/10/26 12:17:29;;;;;;;0.80;0.80;;;19.20;99.70;;;;;;5100143;28;20727;-82
2022/10/26 12:20:06;;;;;;;1.33;0.53;;;19.20;99.30;;;;;;5111061;28;20635;-81
2022/10/26 12:22:37;;;;;;;1.00;0.90;;;19.00;99.60;;;;;;5112375;28;20664;-81
2022/10/26 12:25:19;;;;;;;0.97;0.80;;;19.00;98.60;;;;;;5111749;28;20627;-81
2022/10/26 12:27:55;;;;;;;1.90;0.60;;;19.00;99.60;;;;;;5111260;28;20672;-83
2022/10/26 12:30:28;;;;;;;1.17;0.70;;;19.00;98.40;;;;;;5112273;28;21472;-83
2022/10/26 12:32:56;;;;;;;0.70;0.67;;;19.00;99.10;;;;;;5111569;28;20636;-81
2022/10/26 12:35:52;;;;;;;1.57;0.77;;;19.00;98.70;;;;;;5111639;28;20666;-82
2022/10/26 12:39:01;;;;;;;1.50;0.80;;;19.00;99.90;;;;;;5111327;28;21272;-81
2022/10/26 12:41:28;;;;;;;1.33;0.63;;;19.00;99.90;;;;;;5112017;28;21260;-82
2022/10/26 12:44:03;;;;;;;2.40;0.60;;;19.00;99.90;;;;;;5089634;28;20631;-81
2022/10/26 12:46:40;;;;;;;1.20;0.80;;;19.00;99.90;;;;;;5097524;28;20744;-81
2022/10/26 12:49:58;;;;;;;1.53;0.80;;;19.00;99.10;;;;;;5091459;28;20667;-83
2022/10/26 12:52:45;;;;;;;1.10;0.80;;;19.20;99.90;;;;;;5091173;28;20632;-82
2022/10/26 12:55:46;;;;;;;2.00;0.73;;;19.10;99.90;;;;;;5094793;28;20631;-82
2022/10/26 12:58:39;;;;;;;1.00;0.80;;;19.20;99.40;;;;;;5111275;28;20615;-82
2022/10/26 13:01:28;;;;;;;0.70;0.70;;;19.20;99.50;;;;;;5077779;28;21221;-82
2022/10/26 13:04:15;;;;;;;0.70;0.70;;;19.30;98.50;;;;;;5091775;28;20623;-81
2022/10/26 13:06:59;;;;;;;0.80;0.60;;;19.30;97.90;;;;;;5090249;28;20632;-81
2022/10/26 13:09:32;;;;;;;1.57;1.47;;;19.40;98.30;;;;;;5092530;28;20663;-82
2022/10/26 13:12:02;;;;;;;0.93;0.80;;;19.40;98.20;;;;;;5112696;28;20718;-82